sensor_id;sensor_type;location;lat;lon;timestamp;P1;durP1;ratioP1;P2;durP2;ratioP2
42670;SDS011;28283;55.426;37.756;2024-02-21T00:04:37;13.10;;;9.77;;
42670;SDS011;28283;55.426;37.756;2024-02-21T00:09:38;15.00;;;10.70;;
42670;SDS011;28283;55.426;37.756;2024-02-21T00:14:39;13.93;;;10.40;;
42670;SDS011;28283;55.426;37.756;2024-02-21T00:19:40;10.68;;;6.40;;
42670;SDS011;28283;55.426;37.756;2024-02-21T00:24:41;18.33;;;11.48;;
42670;SDS011;28283;55.426;37.756;2024-02-21T00:29:42;15.52;;;10.65;;
42670;SDS011;28283;55.426;37.756;2024-02-21T00:34:43;17.35;;;10.73;;
42670;SDS011;28283;55.426;37.756;2024-02-21T00:39:44;12.98;;;7.25;;
42670;SDS011;28283;55.426;37.756;2024-02-21T00:44:44;13.63;;;9.27;;
42670;SDS011;28283;55.426;37.756;2024-02-21T00:49:45;14.20;;;10.05;;
42670;SDS011;28283;55.426;37.756;2024-02-21T00:54:46;11.00;;;8.02;;
42670;SDS011;28283;55.426;37.756;2024-02-21T00:59:46;17.63;;;11.57;;
42670;SDS011;28283;55.426;37.756;2024-02-21T01:04:47;16.00;;;11.30;;
42670;SDS011;28283;55.426;37.756;2024-02-21T01:09:48;17.55;;;11.57;;
42670;SDS011;28283;55.426;37.756;2024-02-21T01:14:48;15.18;;;11.68;;
42670;SDS011;28283;55.426;37.756;2024-02-21T01:19:49;23.08;;;12.23;;
42670;SDS011;28283;55.426;37.756;2024-02-21T01:24:50;17.60;;;10.68;;
42670;SDS011;28283;55.426;37.756;2024-02-21T01:29:51;14.77;;;10.73;;
42670;SDS011;28283;55.426;37.756;2024-02-21T01:34:51;20.65;;;10.93;;
42670;SDS011;28283;55.426;37.756;2024-02-21T01:39:52;13.02;;;10.75;;
42670;SDS011;28283;55.426;37.756;2024-02-21T01:44:53;17.95;;;11.13;;
42670;SDS011;28283;55.426;37.756;2024-02-21T01:49:53;17.60;;;11.27;;
42670;SDS011;28283;55.426;37.756;2024-02-21T01:54:54;16.00;;;10.40;;
42670;SDS011;28283;55.426;37.756;2024-02-21T01:59:55;16.17;;;11.15;;
42670;SDS011;28283;55.426;37.756;2024-02-21T02:04:55;23.02;;;12.40;;
42670;SDS011;28283;55.426;37.756;2024-02-21T02:09:57;11.07;;;7.68;;
42670;SDS011;28283;55.426;37.756;2024-02-21T02:14:58;17.88;;;12.20;;
42670;SDS011;28283;55.426;37.756;2024-02-21T02:20:04;21.30;;;12.48;;
42670;SDS011;28283;55.426;37.756;2024-02-21T02:25:06;18.98;;;12.88;;
42670;SDS011;28283;55.426;37.756;2024-02-21T02:30:07;15.38;;;10.05;;
42670;SDS011;28283;55.426;37.756;2024-02-21T02:35:08;16.00;;;11.30;;
42670;SDS011;28283;55.426;37.756;2024-02-21T02:40:08;15.60;;;10.85;;
42670;SDS011;28283;55.426;37.756;2024-02-21T02:45:09;17.35;;;11.23;;
42670;SDS011;28283;55.426;37.756;2024-02-21T02:50:10;16.05;;;8.95;;
42670;SDS011;28283;55.426;37.756;2024-02-21T02:55:11;17.98;;;11.27;;
42670;SDS011;28283;55.426;37.756;2024-02-21T03:00:11;19.70;;;12.43;;
42670;SDS011;28283;55.426;37.756;2024-02-21T03:10:15;15.32;;;11.70;;
42670;SDS011;28283;55.426;37.756;2024-02-21T03:15:19;17.55;;;11.63;;
42670;SDS011;28283;55.426;37.756;2024-02-21T03:20:20;16.00;;;11.15;;
42670;SDS011;28283;55.426;37.756;2024-02-21T03:25:20;17.80;;;11.15;;
42670;SDS011;28283;55.426;37.756;2024-02-21T03:30:21;19.70;;;12.02;;
42670;SDS011;28283;55.426;37.756;2024-02-21T03:35:22;17.00;;;13.07;;
42670;SDS011;28283;55.426;37.756;2024-02-21T03:40:26;16.83;;;12.07;;
42670;SDS011;28283;55.426;37.756;2024-02-21T03:45:27;16.15;;;11.27;;
42670;SDS011;28283;55.426;37.756;2024-02-21T03:50:27;18.52;;;12.18;;
42670;SDS011;28283;55.426;37.756;2024-02-21T03:55:28;18.13;;;12.57;;
42670;SDS011;28283;55.426;37.756;2024-02-21T04:00:29;17.52;;;11.95;;
42670;SDS011;28283;55.426;37.756;2024-02-21T04:05:30;12.93;;;8.40;;
42670;SDS011;28283;55.426;37.756;2024-02-21T04:10:31;17.80;;;12.23;;
42670;SDS011;28283;55.426;37.756;2024-02-21T04:15:31;16.70;;;11.68;;
42670;SDS011;28283;55.426;37.756;2024-02-21T04:20:34;13.52;;;8.07;;
42670;SDS011;28283;55.426;37.756;2024-02-21T04:25:35;15.70;;;10.10;;
42670;SDS011;28283;55.426;37.756;2024-02-21T04:30:36;17.38;;;12.50;;
42670;SDS011;28283;55.426;37.756;2024-02-21T04:35:37;20.10;;;12.65;;
42670;SDS011;28283;55.426;37.756;2024-02-21T04:40:38;17.10;;;12.48;;
42670;SDS011;28283;55.426;37.756;2024-02-21T04:45:39;18.35;;;13.35;;
42670;SDS011;28283;55.426;37.756;2024-02-21T04:50:39;16.65;;;9.65;;
42670;SDS011;28283;55.426;37.756;2024-02-21T04:55:41;16.77;;;12.07;;
42670;SDS011;28283;55.426;37.756;2024-02-21T05:00:42;17.33;;;13.40;;
42670;SDS011;28283;55.426;37.756;2024-02-21T05:05:42;18.98;;;12.98;;
42670;SDS011;28283;55.426;37.756;2024-02-21T05:10:43;18.60;;;12.98;;
42670;SDS011;28283;55.426;37.756;2024-02-21T05:15:44;18.77;;;11.13;;
42670;SDS011;28283;55.426;37.756;2024-02-21T05:20:44;14.40;;;11.60;;
42670;SDS011;28283;55.426;37.756;2024-02-21T05:25:45;20.65;;;13.23;;
42670;SDS011;28283;55.426;37.756;2024-02-21T05:30:46;19.38;;;14.02;;
42670;SDS011;28283;55.426;37.756;2024-02-21T05:35:47;20.52;;;13.60;;
42670;SDS011;28283;55.426;37.756;2024-02-21T05:40:50;20.55;;;13.68;;
42670;SDS011;28283;55.426;37.756;2024-02-21T05:45:51;15.48;;;12.50;;
42670;SDS011;28283;55.426;37.756;2024-02-21T05:50:51;17.75;;;12.15;;
42670;SDS011;28283;55.426;37.756;2024-02-21T05:55:52;19.48;;;13.77;;
42670;SDS011;28283;55.426;37.756;2024-02-21T06:00:53;21.80;;;13.30;;
42670;SDS011;28283;55.426;37.756;2024-02-21T06:05:54;19.40;;;11.68;;
42670;SDS011;28283;55.426;37.756;2024-02-21T06:10:55;16.20;;;10.40;;
42670;SDS011;28283;55.426;37.756;2024-02-21T06:15:55;18.88;;;13.18;;
42670;SDS011;28283;55.426;37.756;2024-02-21T06:20:56;18.88;;;12.95;;
42670;SDS011;28283;55.426;37.756;2024-02-21T06:25:56;20.25;;;13.18;;
42670;SDS011;28283;55.426;37.756;2024-02-21T06:30:57;19.27;;;12.38;;
42670;SDS011;28283;55.426;37.756;2024-02-21T06:35:59;18.25;;;12.85;;
42670;SDS011;28283;55.426;37.756;2024-02-21T06:41:01;16.80;;;11.90;;
42670;SDS011;28283;55.426;37.756;2024-02-21T06:46:03;18.27;;;13.27;;
42670;SDS011;28283;55.426;37.756;2024-02-21T06:51:04;18.77;;;12.65;;
42670;SDS011;28283;55.426;37.756;2024-02-21T06:56:04;18.98;;;12.82;;
42670;SDS011;28283;55.426;37.756;2024-02-21T07:06:06;21.00;;;11.02;;
42670;SDS011;28283;55.426;37.756;2024-02-21T07:11:07;16.20;;;11.18;;
42670;SDS011;28283;55.426;37.756;2024-02-21T07:16:07;16.58;;;11.40;;
42670;SDS011;28283;55.426;37.756;2024-02-21T07:26:08;19.77;;;12.75;;
42670;SDS011;28283;55.426;37.756;2024-02-21T07:31:09;11.50;;;8.80;;
42670;SDS011;28283;55.426;37.756;2024-02-21T07:41:11;16.53;;;11.50;;
42670;SDS011;28283;55.426;37.756;2024-02-21T07:46:12;15.68;;;11.48;;
42670;SDS011;28283;55.426;37.756;2024-02-21T07:56:13;18.55;;;11.10;;
42670;SDS011;28283;55.426;37.756;2024-02-21T08:01:21;17.63;;;10.85;;
42670;SDS011;28283;55.426;37.756;2024-02-21T08:06:21;16.70;;;11.50;;
42670;SDS011;28283;55.426;37.756;2024-02-21T08:16:23;18.15;;;11.07;;
42670;SDS011;28283;55.426;37.756;2024-02-21T08:21:23;15.13;;;10.68;;
42670;SDS011;28283;55.426;37.756;2024-02-21T08:31:27;22.70;;;12.23;;
42670;SDS011;28283;55.426;37.756;2024-02-21T08:36:31;16.70;;;12.77;;
42670;SDS011;28283;55.426;37.756;2024-02-21T08:41:33;15.75;;;11.52;;
42670;SDS011;28283;55.426;37.756;2024-02-21T08:51:35;14.77;;;11.00;;
42670;SDS011;28283;55.426;37.756;2024-02-21T09:01:37;16.33;;;9.90;;
42670;SDS011;28283;55.426;37.756;2024-02-21T09:11:42;18.02;;;11.38;;
42670;SDS011;28283;55.426;37.756;2024-02-21T09:21:44;15.63;;;10.60;;
42670;SDS011;28283;55.426;37.756;2024-02-21T09:31:45;13.10;;;10.25;;
42670;SDS011;28283;55.426;37.756;2024-02-21T09:41:48;15.80;;;10.20;;
42670;SDS011;28283;55.426;37.756;2024-02-21T09:47:12;16.08;;;9.00;;
42670;SDS011;28283;55.426;37.756;2024-02-21T09:52:22;17.25;;;10.35;;
42670;SDS011;28283;55.426;37.756;2024-02-21T09:57:24;14.80;;;10.32;;
42670;SDS011;28283;55.426;37.756;2024-02-21T10:02:28;15.27;;;10.48;;
42670;SDS011;28283;55.426;37.756;2024-02-21T10:12:29;11.20;;;8.07;;
42670;SDS011;28283;55.426;37.756;2024-02-21T10:17:30;11.82;;;9.15;;
42670;SDS011;28283;55.426;37.756;2024-02-21T10:22:32;12.00;;;8.95;;
42670;SDS011;28283;55.426;37.756;2024-02-21T10:27:39;12.43;;;8.90;;
42670;SDS011;28283;55.426;37.756;2024-02-21T10:33:01;11.02;;;8.30;;
42670;SDS011;28283;55.426;37.756;2024-02-21T10:38:00;11.48;;;8.18;;
42670;SDS011;28283;55.426;37.756;2024-02-21T10:48:11;10.23;;;8.65;;
42670;SDS011;28283;55.426;37.756;2024-02-21T10:53:24;13.90;;;9.32;;
42670;SDS011;28283;55.426;37.756;2024-02-21T10:58:36;10.55;;;7.50;;
42670;SDS011;28283;55.426;37.756;2024-02-21T11:03:38;10.75;;;8.52;;
42670;SDS011;28283;55.426;37.756;2024-02-21T11:08:39;11.65;;;8.25;;
42670;SDS011;28283;55.426;37.756;2024-02-21T11:18:40;13.38;;;9.45;;
42670;SDS011;28283;55.426;37.756;2024-02-21T11:28:41;14.30;;;8.85;;
42670;SDS011;28283;55.426;37.756;2024-02-21T11:33:44;12.15;;;9.13;;
42670;SDS011;28283;55.426;37.756;2024-02-21T11:38:47;13.32;;;9.70;;
42670;SDS011;28283;55.426;37.756;2024-02-21T11:48:49;13.30;;;9.45;;
42670;SDS011;28283;55.426;37.756;2024-02-21T11:58:52;10.53;;;8.07;;
42670;SDS011;28283;55.426;37.756;2024-02-21T12:08:57;9.18;;;6.85;;
42670;SDS011;28283;55.426;37.756;2024-02-21T12:14:02;9.75;;;7.78;;
42670;SDS011;28283;55.426;37.756;2024-02-21T12:19:05;10.25;;;8.00;;
42670;SDS011;28283;55.426;37.756;2024-02-21T12:29:16;14.27;;;8.40;;
42670;SDS011;28283;55.426;37.756;2024-02-21T12:39:17;12.85;;;7.03;;
42670;SDS011;28283;55.426;37.756;2024-02-21T12:49:18;11.52;;;8.90;;
42670;SDS011;28283;55.426;37.756;2024-02-21T12:59:19;12.95;;;9.10;;
42670;SDS011;28283;55.426;37.756;2024-02-21T13:09:22;12.35;;;8.07;;
42670;SDS011;28283;55.426;37.756;2024-02-21T13:19:24;11.25;;;8.60;;
42670;SDS011;28283;55.426;37.756;2024-02-21T13:29:25;11.00;;;9.27;;
42670;SDS011;28283;55.426;37.756;2024-02-21T13:39:27;12.60;;;8.02;;
42670;SDS011;28283;55.426;37.756;2024-02-21T13:49:28;14.45;;;8.68;;
42670;SDS011;28283;55.426;37.756;2024-02-21T13:54:30;14.90;;;9.65;;
42670;SDS011;28283;55.426;37.756;2024-02-21T14:09:34;12.13;;;8.77;;
42670;SDS011;28283;55.426;37.756;2024-02-21T14:19:36;12.53;;;8.93;;
42670;SDS011;28283;55.426;37.756;2024-02-21T14:29:37;12.20;;;7.47;;
42670;SDS011;28283;55.426;37.756;2024-02-21T14:39:38;13.15;;;9.15;;
42670;SDS011;28283;55.426;37.756;2024-02-21T14:44:40;12.07;;;6.53;;
42670;SDS011;28283;55.426;37.756;2024-02-21T14:54:41;14.18;;;10.13;;
42670;SDS011;28283;55.426;37.756;2024-02-21T14:59:46;13.98;;;9.82;;
42670;SDS011;28283;55.426;37.756;2024-02-21T15:04:48;12.85;;;10.40;;
42670;SDS011;28283;55.426;37.756;2024-02-21T15:09:51;14.27;;;10.00;;
42670;SDS011;28283;55.426;37.756;2024-02-21T15:19:52;16.75;;;10.25;;
42670;SDS011;28283;55.426;37.756;2024-02-21T15:24:55;17.85;;;8.98;;
42670;SDS011;28283;55.426;37.756;2024-02-21T15:29:55;14.35;;;10.60;;
42670;SDS011;28283;55.426;37.756;2024-02-21T15:34:57;16.40;;;11.38;;
42670;SDS011;28283;55.426;37.756;2024-02-21T15:39:57;15.73;;;11.07;;
42670;SDS011;28283;55.426;37.756;2024-02-21T15:50:05;16.77;;;11.35;;
42670;SDS011;28283;55.426;37.756;2024-02-21T15:55:06;15.27;;;9.95;;
42670;SDS011;28283;55.426;37.756;2024-02-21T16:00:12;16.17;;;11.88;;
42670;SDS011;28283;55.426;37.756;2024-02-21T16:05:13;18.27;;;12.32;;
42670;SDS011;28283;55.426;37.756;2024-02-21T16:10:14;16.02;;;9.45;;
42670;SDS011;28283;55.426;37.756;2024-02-21T16:20:15;19.65;;;12.30;;
42670;SDS011;28283;55.426;37.756;2024-02-21T16:30:18;18.70;;;9.85;;
42670;SDS011;28283;55.426;37.756;2024-02-21T16:40:19;14.23;;;8.13;;
42670;SDS011;28283;55.426;37.756;2024-02-21T16:50:21;21.52;;;13.00;;
42670;SDS011;28283;55.426;37.756;2024-02-21T17:00:22;18.90;;;13.38;;
42670;SDS011;28283;55.426;37.756;2024-02-21T17:10:26;23.10;;;13.40;;
42670;SDS011;28283;55.426;37.756;2024-02-21T17:15:27;22.52;;;14.30;;
42670;SDS011;28283;55.426;37.756;2024-02-21T17:20:28;19.67;;;12.70;;
42670;SDS011;28283;55.426;37.756;2024-02-21T17:25:28;20.33;;;12.82;;
42670;SDS011;28283;55.426;37.756;2024-02-21T17:35:30;20.37;;;13.60;;
42670;SDS011;28283;55.426;37.756;2024-02-21T17:40:33;22.25;;;13.98;;
42670;SDS011;28283;55.426;37.756;2024-02-21T17:45:34;24.08;;;16.38;;
42670;SDS011;28283;55.426;37.756;2024-02-21T17:50:35;25.67;;;15.02;;
42670;SDS011;28283;55.426;37.756;2024-02-21T18:00:37;20.42;;;13.15;;
42670;SDS011;28283;55.426;37.756;2024-02-21T18:05:44;25.17;;;15.25;;
42670;SDS011;28283;55.426;37.756;2024-02-21T18:10:44;25.20;;;15.35;;
42670;SDS011;28283;55.426;37.756;2024-02-21T18:15:45;25.00;;;16.02;;
42670;SDS011;28283;55.426;37.756;2024-02-21T18:20:46;19.35;;;10.55;;
42670;SDS011;28283;55.426;37.756;2024-02-21T18:25:47;21.45;;;15.30;;
42670;SDS011;28283;55.426;37.756;2024-02-21T18:30:47;22.75;;;15.80;;
42670;SDS011;28283;55.426;37.756;2024-02-21T18:35:48;23.83;;;15.20;;
42670;SDS011;28283;55.426;37.756;2024-02-21T18:40:52;21.58;;;13.25;;
42670;SDS011;28283;55.426;37.756;2024-02-21T18:45:53;27.65;;;16.40;;
42670;SDS011;28283;55.426;37.756;2024-02-21T18:50:54;24.63;;;14.98;;
42670;SDS011;28283;55.426;37.756;2024-02-21T18:55:55;25.10;;;15.52;;
42670;SDS011;28283;55.426;37.756;2024-02-21T19:00:56;25.15;;;14.90;;
42670;SDS011;28283;55.426;37.756;2024-02-21T19:05:57;26.92;;;15.40;;
42670;SDS011;28283;55.426;37.756;2024-02-21T19:10:58;26.98;;;15.48;;
42670;SDS011;28283;55.426;37.756;2024-02-21T19:15:58;27.85;;;17.15;;
42670;SDS011;28283;55.426;37.756;2024-02-21T19:20:59;22.90;;;14.80;;
42670;SDS011;28283;55.426;37.756;2024-02-21T19:26:00;14.50;;;9.30;;
42670;SDS011;28283;55.426;37.756;2024-02-21T19:31:04;29.67;;;17.85;;
42670;SDS011;28283;55.426;37.756;2024-02-21T19:36:05;24.10;;;14.48;;
42670;SDS011;28283;55.426;37.756;2024-02-21T19:41:09;26.50;;;15.30;;
42670;SDS011;28283;55.426;37.756;2024-02-21T19:46:09;28.77;;;17.58;;
42670;SDS011;28283;55.426;37.756;2024-02-21T19:51:13;26.63;;;16.83;;
42670;SDS011;28283;55.426;37.756;2024-02-21T19:56:14;30.02;;;17.67;;
42670;SDS011;28283;55.426;37.756;2024-02-21T20:01:16;27.27;;;17.50;;
42670;SDS011;28283;55.426;37.756;2024-02-21T20:06:17;28.05;;;16.85;;
42670;SDS011;28283;55.426;37.756;2024-02-21T20:16:22;22.58;;;14.48;;
42670;SDS011;28283;55.426;37.756;2024-02-21T20:21:23;28.33;;;17.98;;
42670;SDS011;28283;55.426;37.756;2024-02-21T20:26:24;32.28;;;18.10;;
42670;SDS011;28283;55.426;37.756;2024-02-21T20:36:25;28.42;;;18.05;;
42670;SDS011;28283;55.426;37.756;2024-02-21T20:41:26;24.27;;;16.13;;
42670;SDS011;28283;55.426;37.756;2024-02-21T20:46:27;31.10;;;19.15;;
42670;SDS011;28283;55.426;37.756;2024-02-21T20:56:28;30.23;;;19.70;;
42670;SDS011;28283;55.426;37.756;2024-02-21T21:06:29;27.92;;;17.42;;
42670;SDS011;28283;55.426;37.756;2024-02-21T21:11:30;32.53;;;21.15;;
42670;SDS011;28283;55.426;37.756;2024-02-21T21:16:30;31.05;;;18.42;;
42670;SDS011;28283;55.426;37.756;2024-02-21T21:21:32;40.78;;;19.98;;
42670;SDS011;28283;55.426;37.756;2024-02-21T21:26:33;31.08;;;17.98;;
42670;SDS011;28283;55.426;37.756;2024-02-21T21:31:35;29.65;;;19.13;;
42670;SDS011;28283;55.426;37.756;2024-02-21T21:36:35;28.33;;;19.15;;
42670;SDS011;28283;55.426;37.756;2024-02-21T21:41:36;32.80;;;17.90;;
42670;SDS011;28283;55.426;37.756;2024-02-21T21:46:37;30.55;;;20.02;;
42670;SDS011;28283;55.426;37.756;2024-02-21T21:51:39;29.05;;;19.08;;
42670;SDS011;28283;55.426;37.756;2024-02-21T21:56:40;32.15;;;19.35;;
42670;SDS011;28283;55.426;37.756;2024-02-21T22:06:41;28.45;;;19.10;;
42670;SDS011;28283;55.426;37.756;2024-02-21T22:16:43;30.60;;;19.25;;
42670;SDS011;28283;55.426;37.756;2024-02-21T22:21:44;23.55;;;12.55;;
42670;SDS011;28283;55.426;37.756;2024-02-21T22:26:45;31.42;;;19.05;;
42670;SDS011;28283;55.426;37.756;2024-02-21T22:31:47;27.42;;;18.52;;
42670;SDS011;28283;55.426;37.756;2024-02-21T22:36:47;23.67;;;15.25;;
42670;SDS011;28283;55.426;37.756;2024-02-21T22:41:48;28.73;;;18.60;;
42670;SDS011;28283;55.426;37.756;2024-02-21T22:51:49;25.55;;;15.43;;
42670;SDS011;28283;55.426;37.756;2024-02-21T23:01:50;26.83;;;17.90;;
42670;SDS011;28283;55.426;37.756;2024-02-21T23:11:52;28.23;;;19.35;;
42670;SDS011;28283;55.426;37.756;2024-02-21T23:16:52;29.38;;;18.90;;
42670;SDS011;28283;55.426;37.756;2024-02-21T23:26:54;17.52;;;11.57;;
42670;SDS011;28283;55.426;37.756;2024-02-21T23:36:55;26.52;;;17.83;;
42670;SDS011;28283;55.426;37.756;2024-02-21T23:41:55;25.13;;;16.02;;
42670;SDS011;28283;55.426;37.756;2024-02-21T23:46:57;25.60;;;17.77;;
42670;SDS011;28283;55.426;37.756;2024-02-21T23:51:59;26.52;;;17.33;;
42670;SDS011;28283;55.426;37.756;2024-02-21T23:57:00;20.55;;;13.95;;
